ENST/SSJ METAR and TAF weather

Enter ICAO airport designator
Station Type Date Time Source
ENST METAR 2018/10/19 15:50 UTC NOAA

ENST 191550Z 17012KT 9999 -DZ FEW006 SCT012 BKN035 08/07 Q1015 RMK WIND 300FT 17015KT


Station Type Date Time Source
ENST Decoded METAR 2018/10/19 15:50 UTC NOAA

Sandnessjoen / Stokka, Norway (ENST) 65-58N 012-28E 17M
Oct 19, 2018 - 11:50 AM EDT / 2018.10.19 1550 UTC
Wind: from the S (170 degrees) at 14 MPH (12 KT):0
Visibility: greater than 7 mile(s):0
Sky conditions: mostly cloudy
Weather: light drizzle
Temperature: 46 F (8 C)
Dew Point: 44 F (7 C)
Relative Humidity: 93%
Pressure (altimeter): 29.97 in. Hg (1015 hPa)
ob: ENST 191550Z 17012KT 9999 -DZ FEW006 SCT012 BKN035 08/07 Q1015 RMK WIND 300FT 17015KT
cycle: 16

Station Type Date Time Source
ENST TAF UTC NOAA

Error!


Example: see airport list